Time;durP1;ratioP1;P1;durP2;ratioP2;P2;SDS_P1;SDS_P2;PMS_P1;PMS_P2;Temp;Humidity;BMP_temperature;BMP_pressure;BME280_temperature;BME280_humidity;BME280_pressure;Samples;Min_cycle;Max_cycle;Signal;HPM_P1;HPM_P2
2022/05/09 00:00:20;;;;;;;9.57;6.70;;;12.40;99.90;;;;;;4952237;28;20559;-74
2022/05/09 00:02:46;;;;;;;8.53;6.47;;;12.40;99.90;;;;;;4951727;28;20220;-74
2022/05/09 00:05:17;;;;;;;10.30;6.77;;;12.50;99.90;;;;;;4952058;28;20195;-72
2022/05/09 00:07:45;;;;;;;11.53;6.50;;;12.50;99.90;;;;;;4949842;28;20277;-76
2022/05/09 00:10:15;;;;;;;9.50;6.50;;;12.40;99.90;;;;;;4951247;28;20223;-75
2022/05/09 00:12:42;;;;;;;9.53;6.70;;;12.40;99.90;;;;;;4951578;28;20202;-73
2022/05/09 00:15:10;;;;;;;8.37;6.60;;;12.30;99.90;;;;;;4950345;28;20214;-74
2022/05/09 00:17:37;;;;;;;10.37;6.93;;;12.20;99.90;;;;;;4951067;28;20591;-75
2022/05/09 00:20:05;;;;;;;9.70;6.70;;;12.20;99.90;;;;;;4951564;28;20283;-75
2022/05/09 00:22:43;;;;;;;9.87;6.73;;;12.20;99.90;;;;;;4950869;28;20218;-75
2022/05/09 00:25:10;;;;;;;9.80;7.10;;;12.10;99.90;;;;;;4951400;28;20197;-75
2022/05/09 00:27:36;;;;;;;10.93;7.20;;;12.10;99.90;;;;;;4951088;28;20218;-75
2022/05/09 00:30:04;;;;;;;10.13;7.03;;;12.10;99.90;;;;;;4948774;28;20256;-75
2022/05/09 00:32:31;;;;;;;13.07;7.67;;;12.00;99.90;;;;;;4949555;28;20205;-75
2022/05/09 00:35:03;;;;;;;11.03;7.43;;;12.10;99.90;;;;;;4951483;28;20232;-78
2022/05/09 00:37:29;;;;;;;10.87;7.63;;;12.10;99.90;;;;;;4945126;28;20233;-76
2022/05/09 00:39:56;;;;;;;12.53;7.00;;;12.10;99.90;;;;;;4950842;28;20212;-76
2022/05/09 00:42:23;;;;;;;8.93;6.47;;;12.00;99.90;;;;;;4949654;28;21828;-77
2022/05/09 00:44:49;;;;;;;10.10;6.70;;;12.10;99.90;;;;;;4946589;28;21504;-76
2022/05/09 00:47:16;;;;;;;8.87;6.40;;;12.10;99.90;;;;;;4945671;28;20229;-74
2022/05/09 00:49:49;;;;;;;9.23;6.80;;;12.10;99.90;;;;;;4949774;28;20534;-74
2022/05/09 00:52:43;;;;;;;11.03;6.83;;;12.00;99.90;;;;;;4947546;28;20202;-74
2022/05/09 00:55:23;;;;;;;9.03;6.77;;;12.10;99.90;;;;;;4947368;28;20206;-77
2022/05/09 00:58:11;;;;;;;10.10;6.87;;;12.10;99.90;;;;;;4949982;28;20280;-75
2022/05/09 01:00:39;;;;;;;9.13;6.40;;;12.10;99.90;;;;;;4949959;28;20213;-74
2022/05/09 01:03:10;;;;;;;10.87;6.40;;;12.10;99.90;;;;;;4948445;28;20280;-75
2022/05/09 01:05:37;;;;;;;10.30;7.07;;;12.20;99.90;;;;;;4950881;28;20610;-73
2022/05/09 01:08:05;;;;;;;8.47;6.17;;;12.20;99.90;;;;;;4948027;28;20230;-74
2022/05/09 01:10:35;;;;;;;10.33;7.03;;;12.20;99.90;;;;;;4949902;28;20205;-75
2022/05/09 01:13:07;;;;;;;9.97;6.50;;;12.20;99.90;;;;;;4948225;28;20216;-75
2022/05/09 01:15:34;;;;;;;9.40;6.60;;;12.20;99.90;;;;;;4949494;28;20212;-73
2022/05/09 01:18:06;;;;;;;10.57;7.07;;;12.20;99.90;;;;;;4949374;28;20233;-77
2022/05/09 01:20:33;;;;;;;11.30;6.63;;;12.20;99.90;;;;;;4950167;28;20220;-72
2022/05/09 01:23:00;;;;;;;12.03;6.47;;;12.40;99.90;;;;;;4948621;28;20222;-73
2022/05/09 01:25:28;;;;;;;11.13;6.93;;;12.40;99.90;;;;;;4954166;28;20217;-74
2022/05/09 01:27:55;;;;;;;11.50;6.37;;;12.30;99.90;;;;;;4949013;28;20225;-76
2022/05/09 01:30:30;;;;;;;12.10;6.43;;;12.30;99.90;;;;;;4949295;28;20217;-73
2022/05/09 01:33:07;;;;;;;8.73;6.20;;;12.30;99.90;;;;;;4948744;28;20205;-75
2022/05/09 01:35:38;;;;;;;8.83;5.73;;;12.30;99.90;;;;;;4948262;28;20207;-78
2022/05/09 01:38:23;;;;;;;8.27;5.67;;;12.20;99.90;;;;;;4947789;28;20230;-76
2022/05/09 01:40:50;;;;;;;10.97;6.43;;;12.20;99.90;;;;;;4948835;28;20194;-74
2022/05/09 01:43:37;;;;;;;7.90;5.90;;;12.20;99.90;;;;;;4949280;28;20346;-73
2022/05/09 01:46:08;;;;;;;8.10;6.10;;;12.30;99.90;;;;;;4947644;28;20201;-73
2022/05/09 01:51:21;;;;;;;12.53;6.87;;;12.20;99.90;;;;;;4948285;28;20198;-74
2022/05/09 01:53:50;;;;;;;11.97;6.13;;;12.20;99.90;;;;;;4946401;28;20206;-79
2022/05/09 01:56:19;;;;;;;9.10;6.00;;;12.30;99.90;;;;;;4947227;28;20203;-77
2022/05/09 01:58:46;;;;;;;10.37;5.77;;;12.30;99.90;;;;;;4945998;28;20224;-75
2022/05/09 02:01:13;;;;;;;7.17;5.40;;;12.20;99.90;;;;;;4947611;28;20234;-75
2022/05/09 02:03:40;;;;;;;8.90;6.03;;;12.20;99.90;;;;;;4947763;28;20256;-78
2022/05/09 02:06:09;;;;;;;9.33;6.13;;;12.20;99.90;;;;;;4947724;28;20202;-76
2022/05/09 02:08:36;;;;;;;8.50;5.80;;;12.20;99.90;;;;;;4947181;28;20225;-75
2022/05/09 02:11:03;;;;;;;8.17;6.23;;;12.20;99.90;;;;;;4948025;28;20207;-77
2022/05/09 02:13:30;;;;;;;8.60;6.33;;;12.10;99.90;;;;;;4948674;28;20206;-77
2022/05/09 02:15:57;;;;;;;10.10;6.60;;;12.10;99.90;;;;;;4949081;28;20212;-73
2022/05/09 02:18:24;;;;;;;7.83;6.10;;;12.10;99.90;;;;;;4947387;28;20232;-78
2022/05/09 02:20:51;;;;;;;8.30;6.10;;;12.00;99.90;;;;;;4945549;28;20237;-73
2022/05/09 02:23:18;;;;;;;9.53;6.27;;;12.00;99.90;;;;;;4949600;28;20231;-74
2022/05/09 02:25:45;;;;;;;8.97;6.07;;;11.90;99.90;;;;;;4952210;28;20209;-77
2022/05/09 02:28:14;;;;;;;8.00;6.10;;;11.80;99.90;;;;;;4951897;28;20233;-74
2022/05/09 02:30:41;;;;;;;8.20;5.80;;;11.80;99.90;;;;;;4950755;28;20219;-77
2022/05/09 02:33:10;;;;;;;10.03;6.67;;;11.70;99.90;;;;;;4950737;28;20197;-78
2022/05/09 02:35:38;;;;;;;10.63;6.00;;;11.70;99.90;;;;;;4950014;28;20208;-77
2022/05/09 02:38:05;;;;;;;8.00;6.23;;;11.60;99.90;;;;;;4949321;28;20728;-75
2022/05/09 02:40:33;;;;;;;8.93;6.13;;;11.60;99.90;;;;;;4947948;28;20202;-74
2022/05/09 02:43:01;;;;;;;8.13;6.40;;;11.60;99.90;;;;;;4949070;28;20200;-73
2022/05/09 02:45:29;;;;;;;10.17;7.03;;;11.50;99.90;;;;;;4947367;28;20227;-75
2022/05/09 02:47:56;;;;;;;9.53;6.17;;;11.60;99.90;;;;;;4946159;28;20227;-75
2022/05/09 02:50:23;;;;;;;8.00;6.20;;;11.60;99.90;;;;;;4945644;28;20720;-76
2022/05/09 02:52:52;;;;;;;9.13;6.37;;;11.70;99.90;;;;;;4948254;28;20268;-77
2022/05/09 02:55:20;;;;;;;11.73;6.33;;;11.90;99.90;;;;;;4946962;28;20206;-76
2022/05/09 02:57:48;;;;;;;7.73;6.20;;;12.10;99.90;;;;;;4946499;28;20292;-73
2022/05/09 03:00:27;;;;;;;7.40;5.63;;;12.00;99.90;;;;;;4947005;28;20600;-75
2022/05/09 03:05:41;;;;;;;10.07;6.20;;;11.80;99.90;;;;;;4946366;28;20614;-79
2022/05/09 03:08:13;;;;;;;7.43;5.97;;;11.70;99.90;;;;;;4946356;28;20223;-76
2022/05/09 03:10:39;;;;;;;9.00;6.07;;;11.70;99.90;;;;;;4945411;28;20200;-75
2022/05/09 03:13:09;;;;;;;8.23;5.73;;;11.70;99.90;;;;;;4947393;28;20209;-75
2022/05/09 03:15:42;;;;;;;7.23;5.30;;;11.70;99.90;;;;;;4946610;28;20197;-78
2022/05/09 03:18:10;;;;;;;11.10;6.20;;;11.60;99.90;;;;;;4946399;28;20236;-75
2022/05/09 03:20:38;;;;;;;7.70;5.57;;;11.60;99.90;;;;;;4950096;28;20543;-75
2022/05/09 03:23:07;;;;;;;7.60;5.23;;;11.80;99.90;;;;;;4959942;28;20208;-74
2022/05/09 03:25:35;;;;;;;8.60;5.20;;;11.90;99.90;;;;;;4961885;28;20207;-73
2022/05/09 03:28:08;;;;;;;8.10;5.27;;;11.90;99.90;;;;;;4943905;28;20225;-76
2022/05/09 03:30:36;;;;;;;8.27;5.43;;;11.70;99.90;;;;;;4950476;28;20213;-80
2022/05/09 03:33:03;;;;;;;9.33;5.23;;;11.60;99.90;;;;;;4953606;28;20643;-78
2022/05/09 03:35:30;;;;;;;7.03;5.20;;;11.50;99.90;;;;;;4952885;28;20205;-76
2022/05/09 03:37:57;;;;;;;6.97;5.23;;;11.50;99.90;;;;;;4954061;28;20239;-81
2022/05/09 03:40:24;;;;;;;11.30;6.43;;;11.40;99.90;;;;;;4953967;28;20206;-79
2022/05/09 03:42:51;;;;;;;10.80;6.17;;;11.40;99.90;;;;;;4947107;28;20209;-78
2022/05/09 03:45:17;;;;;;;9.23;6.13;;;11.30;99.90;;;;;;4946169;28;20220;-78
2022/05/09 03:47:44;;;;;;;7.40;5.50;;;11.30;99.90;;;;;;4945328;28;20224;-78
2022/05/09 03:50:13;;;;;;;6.20;4.93;;;11.20;99.90;;;;;;4946299;28;20213;-76
2022/05/09 03:52:41;;;;;;;9.13;5.80;;;11.20;99.90;;;;;;4946221;28;20218;-77
2022/05/09 03:55:08;;;;;;;9.60;6.00;;;11.10;99.90;;;;;;4946545;28;20205;-73
2022/05/09 03:57:44;;;;;;;8.50;5.73;;;11.10;99.90;;;;;;4945013;28;20224;-74
2022/05/09 04:00:12;;;;;;;8.10;6.07;;;11.20;99.90;;;;;;4945292;28;20219;-73
2022/05/09 04:02:38;;;;;;;8.20;5.60;;;11.20;99.90;;;;;;4944990;28;20205;-74
2022/05/09 04:05:06;;;;;;;7.33;5.90;;;11.20;99.90;;;;;;4946119;28;20270;-74
2022/05/09 04:07:33;;;;;;;8.20;5.97;;;11.20;99.90;;;;;;4945786;28;20222;-76
2022/05/09 04:10:03;;;;;;;11.40;6.03;;;11.20;99.90;;;;;;4943407;28;20325;-73
2022/05/09 04:12:31;;;;;;;8.70;6.17;;;11.30;99.90;;;;;;4945691;28;20213;-73
2022/05/09 04:17:44;;;;;;;13.77;6.13;;;11.30;99.90;;;;;;4944152;28;20234;-75
2022/05/09 04:20:11;;;;;;;10.97;6.33;;;11.40;99.90;;;;;;4947012;28;20687;-72
2022/05/09 04:22:40;;;;;;;8.17;6.50;;;11.40;99.90;;;;;;4948952;28;20212;-75
2022/05/09 04:25:07;;;;;;;9.03;6.13;;;11.40;99.90;;;;;;4947595;28;20228;-76
2022/05/09 04:27:34;;;;;;;6.90;5.50;;;11.40;99.90;;;;;;4947424;28;20700;-72
2022/05/09 04:30:01;;;;;;;8.03;6.07;;;11.40;99.90;;;;;;4951651;28;20213;-74
2022/05/09 04:32:28;;;;;;;7.70;6.00;;;11.40;99.90;;;;;;4948646;28;20217;-77
2022/05/09 04:34:54;;;;;;;9.70;6.17;;;11.40;99.90;;;;;;4946987;28;21575;-73
2022/05/09 04:37:21;;;;;;;11.13;7.20;;;11.50;99.90;;;;;;4947305;28;20241;-75
2022/05/09 04:39:48;;;;;;;7.73;6.00;;;11.50;99.90;;;;;;4948586;28;20217;-77
2022/05/09 04:42:14;;;;;;;10.77;6.73;;;11.50;99.90;;;;;;4949169;28;20200;-74
2022/05/09 04:44:41;;;;;;;9.17;6.20;;;11.60;99.90;;;;;;4947334;28;20224;-71
2022/05/09 04:47:07;;;;;;;10.07;6.37;;;11.60;99.90;;;;;;4948651;28;20217;-73
2022/05/09 04:49:34;;;;;;;8.70;6.57;;;11.70;99.90;;;;;;4947885;28;20715;-72
2022/05/09 04:52:02;;;;;;;9.60;6.90;;;11.90;99.90;;;;;;4948743;28;20205;-74
2022/05/09 04:54:28;;;;;;;10.13;6.10;;;12.00;99.90;;;;;;4947035;28;20206;-73
2022/05/09 04:56:55;;;;;;;10.93;6.23;;;12.10;99.90;;;;;;4946459;28;20726;-76
2022/05/09 04:59:22;;;;;;;10.20;6.97;;;12.10;99.90;;;;;;4946009;28;20242;-74
2022/05/09 05:01:49;;;;;;;10.17;6.83;;;12.20;99.90;;;;;;4947173;28;20205;-74
2022/05/09 05:04:17;;;;;;;9.97;7.03;;;12.40;99.90;;;;;;4946283;28;20711;-73
2022/05/09 05:06:44;;;;;;;10.07;6.77;;;12.50;99.90;;;;;;4947902;28;20593;-74
2022/05/09 05:09:11;;;;;;;10.30;6.97;;;12.60;99.90;;;;;;4948388;28;20278;-76
2022/05/09 05:11:37;;;;;;;13.03;7.67;;;12.60;99.90;;;;;;4944396;28;20634;-74
2022/05/09 05:14:04;;;;;;;10.90;6.93;;;12.80;99.90;;;;;;4944690;28;20207;-73
2022/05/09 05:19:16;;;;;;;9.20;6.70;;;13.10;99.90;;;;;;4940925;28;20256;-72
2022/05/09 05:21:43;;;;;;;9.47;6.87;;;13.10;99.90;;;;;;4947174;28;20654;-71
2022/05/09 05:24:16;;;;;;;10.93;6.40;;;13.20;99.90;;;;;;4948028;28;20212;-73
2022/05/09 05:26:43;;;;;;;12.00;7.17;;;13.40;99.90;;;;;;4945051;28;20615;-72
2022/05/09 05:29:09;;;;;;;11.10;6.67;;;13.50;99.90;;;;;;4944271;28;20199;-75
2022/05/09 05:31:41;;;;;;;10.77;6.30;;;13.70;99.90;;;;;;4937085;28;20220;-73
2022/05/09 05:34:08;;;;;;;8.93;6.63;;;13.80;99.90;;;;;;4941486;28;20652;-73
2022/05/09 05:36:34;;;;;;;10.33;7.00;;;14.00;99.90;;;;;;4945417;28;20205;-71
2022/05/09 05:39:01;;;;;;;11.27;7.10;;;14.40;99.90;;;;;;4942306;28;20222;-72
2022/05/09 05:41:28;;;;;;;13.77;6.33;;;14.60;99.90;;;;;;4945667;28;20206;-76
2022/05/09 05:43:55;;;;;;;10.67;6.30;;;14.80;99.90;;;;;;4944630;28;20465;-71
2022/05/09 05:46:22;;;;;;;11.70;6.30;;;15.10;99.90;;;;;;4945364;28;20198;-71
2022/05/09 05:48:48;;;;;;;9.27;5.37;;;15.40;99.90;;;;;;4940397;28;20801;-72
2022/05/09 05:51:18;;;;;;;10.63;5.20;;;15.60;99.90;;;;;;4944945;28;20210;-70
2022/05/09 05:53:45;;;;;;;15.03;5.27;;;15.80;99.90;;;;;;4944819;28;20205;-72
2022/05/09 05:56:12;;;;;;;7.43;4.47;;;15.90;99.90;;;;;;4946225;28;20592;-69
2022/05/09 05:58:39;;;;;;;8.20;5.07;;;15.90;99.90;;;;;;4945178;28;20763;-72
2022/05/09 06:01:06;;;;;;;9.60;4.83;;;15.90;99.90;;;;;;4944014;28;20210;-72
2022/05/09 06:03:33;;;;;;;8.50;4.77;;;16.00;99.90;;;;;;4942274;28;20254;-74
2022/05/09 06:05:59;;;;;;;7.67;4.97;;;16.10;99.90;;;;;;4939118;28;20343;-71
2022/05/09 06:08:26;;;;;;;7.97;4.53;;;16.00;99.90;;;;;;4947857;28;20222;-74
2022/05/09 06:10:53;;;;;;;7.23;4.80;;;16.00;99.90;;;;;;4946302;28;20194;-74
2022/05/09 06:13:19;;;;;;;5.20;4.33;;;16.20;99.90;;;;;;4946720;28;20209;-71
2022/05/09 06:15:46;;;;;;;8.97;4.20;;;16.30;99.90;;;;;;4942453;28;20206;-71
2022/05/09 06:18:13;;;;;;;8.63;3.93;;;16.40;99.90;;;;;;4942893;28;20215;-74
2022/05/09 06:20:43;;;;;;;5.27;4.00;;;16.40;99.90;;;;;;4940780;28;20202;-70
2022/05/09 06:23:12;;;;;;;5.00;3.80;;;16.50;99.90;;;;;;4941668;28;20703;-72
2022/05/09 06:25:40;;;;;;;12.23;4.47;;;16.60;99.90;;;;;;4943513;28;20230;-74
2022/05/09 06:28:07;;;;;;;7.67;4.07;;;16.70;99.90;;;;;;4941861;28;20221;-71
2022/05/09 06:30:34;;;;;;;7.13;4.00;;;16.70;99.90;;;;;;4943404;28;20214;-71
2022/05/09 06:33:02;;;;;;;6.77;3.93;;;16.80;99.90;;;;;;4940826;28;20210;-71
2022/05/09 06:35:28;;;;;;;8.63;4.23;;;16.80;99.90;;;;;;4938833;28;20210;-69
2022/05/09 06:38:05;;;;;;;9.67;3.83;;;16.90;99.90;;;;;;4936726;28;20728;-72
2022/05/09 06:40:33;;;;;;;12.47;4.43;;;17.00;99.90;;;;;;4941054;28;20194;-72
2022/05/09 06:43:00;;;;;;;14.27;4.87;;;17.20;99.90;;;;;;4941656;28;20207;-74
2022/05/09 06:45:27;;;;;;;10.53;4.13;;;17.30;99.90;;;;;;4936375;28;20222;-69
2022/05/09 06:47:55;;;;;;;8.20;4.10;;;17.30;99.90;;;;;;4942429;28;20245;-73
2022/05/09 06:50:28;;;;;;;10.67;4.30;;;17.50;99.90;;;;;;4940126;28;20211;-75
2022/05/09 06:52:55;;;;;;;8.47;4.20;;;17.60;99.90;;;;;;4941698;28;21024;-72
2022/05/09 06:55:42;;;;;;;10.37;3.97;;;17.70;99.90;;;;;;4944060;28;20310;-72
2022/05/09 06:58:12;;;;;;;9.03;4.10;;;17.90;99.90;;;;;;4942305;28;20232;-71
2022/05/09 07:00:39;;;;;;;9.83;4.13;;;18.00;99.90;;;;;;4940181;28;20641;-74
2022/05/09 07:03:06;;;;;;;5.63;3.70;;;18.10;99.90;;;;;;4939869;28;20206;-73
2022/05/09 07:05:33;;;;;;;12.33;3.93;;;18.50;99.90;;;;;;4937171;28;20308;-75
2022/05/09 07:07:59;;;;;;;6.00;3.53;;;19.10;99.90;;;;;;4942977;28;20223;-73
2022/05/09 07:10:28;;;;;;;7.23;3.53;;;19.90;99.90;;;;;;4943198;28;20213;-73
2022/05/09 07:12:56;;;;;;;8.93;3.47;;;20.30;99.90;;;;;;4945240;28;20275;-72
2022/05/09 07:15:26;;;;;;;6.57;3.63;;;20.50;99.90;;;;;;4943787;28;20217;-73
2022/05/09 07:17:53;;;;;;;7.30;3.03;;;20.30;99.90;;;;;;4938267;28;20222;-75
2022/05/09 07:20:22;;;;;;;7.77;2.93;;;20.40;99.90;;;;;;4945121;28;20208;-73
2022/05/09 07:22:55;;;;;;;5.97;3.37;;;20.70;99.90;;;;;;4941185;28;20689;-74
2022/05/09 07:25:24;;;;;;;11.50;3.30;;;21.00;99.90;;;;;;4942478;28;20232;-71
2022/05/09 07:27:51;;;;;;;5.93;2.90;;;21.40;99.90;;;;;;4939859;28;20288;-73
2022/05/09 07:30:21;;;;;;;11.10;2.80;;;21.50;99.90;;;;;;4943188;28;20209;-74
2022/05/09 07:32:47;;;;;;;11.63;3.55;;;21.70;99.90;;;;;;4942069;28;20294;-74
2022/05/09 07:35:16;;;;;;;7.03;3.08;;;21.70;99.90;;;;;;4940043;28;20201;-75
2022/05/09 07:37:46;;;;;;;5.70;3.00;;;21.60;99.90;;;;;;4936020;28;20232;-76
2022/05/09 07:40:15;;;;;;;8.70;3.40;;;21.60;99.90;;;;;;4936619;28;20215;-75
2022/05/09 07:42:43;;;;;;;7.28;3.25;;;21.60;99.90;;;;;;4938362;28;20206;-73
2022/05/09 07:45:12;;;;;;;5.28;2.90;;;21.60;99.90;;;;;;4945983;28;20248;-74
2022/05/09 07:47:40;;;;;;;4.65;3.00;;;21.60;99.90;;;;;;4943817;28;20716;-75
2022/05/09 07:50:08;;;;;;;5.95;3.08;;;21.70;99.90;;;;;;4942094;28;20218;-75
2022/05/09 07:52:35;;;;;;;7.80;3.17;;;21.60;99.90;;;;;;4944881;28;20198;-75
2022/05/09 07:55:03;;;;;;;6.10;3.17;;;21.70;99.90;;;;;;4941941;28;20205;-74
2022/05/09 07:57:31;;;;;;;7.88;3.60;;;21.50;99.90;;;;;;4946633;28;20228;-74
2022/05/09 07:59:59;;;;;;;6.57;3.70;;;21.50;99.90;;;;;;4946773;28;20217;-75
2022/05/09 08:02:26;;;;;;;7.75;3.30;;;21.60;99.90;;;;;;4948500;28;20257;-76
2022/05/09 08:04:53;;;;;;;7.53;3.38;;;21.70;99.90;;;;;;4943631;28;20790;-75
2022/05/09 08:07:20;;;;;;;7.80;3.78;;;21.50;99.90;;;;;;4942148;28;20227;-74
2022/05/09 08:09:47;;;;;;;6.55;2.97;;;21.50;99.90;;;;;;4938997;28;20206;-72
2022/05/09 08:12:14;;;;;;;8.20;3.50;;;21.60;99.90;;;;;;4944274;28;20337;-75
2022/05/09 08:14:40;;;;;;;6.13;3.40;;;21.70;99.90;;;;;;4939158;28;20214;-73
2022/05/09 08:17:09;;;;;;;5.80;3.83;;;21.70;99.90;;;;;;4939988;28;20237;-71
2022/05/09 08:19:38;;;;;;;5.00;3.30;;;21.60;99.90;;;;;;4942165;28;20213;-70
2022/05/09 08:22:07;;;;;;;6.65;3.75;;;21.70;99.90;;;;;;4937929;28;20747;-75
2022/05/09 08:24:42;;;;;;;6.68;3.50;;;21.60;99.90;;;;;;4942077;28;20238;-73
2022/05/09 08:27:08;;;;;;;7.03;4.03;;;21.50;99.90;;;;;;4940856;28;20226;-72
2022/05/09 08:29:35;;;;;;;8.30;3.63;;;21.50;99.90;;;;;;4941647;28;20305;-77
2022/05/09 08:32:02;;;;;;;6.72;3.72;;;21.50;99.90;;;;;;4941086;28;20225;-74
2022/05/09 08:34:29;;;;;;;7.90;3.67;;;21.60;99.90;;;;;;4940217;28;20682;-72
2022/05/09 08:36:56;;;;;;;6.30;3.60;;;21.70;99.90;;;;;;4939915;28;20225;-73
2022/05/09 08:39:26;;;;;;;5.47;3.78;;;21.80;99.90;;;;;;4943285;28;20202;-73
2022/05/09 08:41:55;;;;;;;6.85;3.85;;;21.80;99.90;;;;;;4940380;28;20682;-72
2022/05/09 08:44:51;;;;;;;6.85;4.18;;;21.70;99.90;;;;;;4941351;28;20209;-76
2022/05/09 08:47:41;;;;;;;10.15;3.95;;;21.80;99.90;;;;;;4942077;28;20233;-76
2022/05/09 08:50:23;;;;;;;7.40;3.90;;;21.80;99.90;;;;;;4941928;28;20221;-74
2022/05/09 08:52:59;;;;;;;8.07;4.35;;;21.80;99.90;;;;;;4941604;28;20210;-72
2022/05/09 08:55:38;;;;;;;4.80;3.72;;;21.60;99.90;;;;;;4940411;28;20198;-76
2022/05/09 08:58:40;;;;;;;6.03;4.03;;;21.70;99.90;;;;;;4943022;28;20595;-71
2022/05/09 09:01:14;;;;;;;9.45;3.97;;;21.90;99.90;;;;;;4943125;28;20213;-73
2022/05/09 09:03:57;;;;;;;7.10;3.88;;;21.90;99.90;;;;;;4941759;28;20268;-72
2022/05/09 09:06:54;;;;;;;11.43;4.05;;;22.00;99.90;;;;;;4942022;28;20230;-71
2022/05/09 09:09:39;;;;;;;7.18;3.38;;;21.80;99.90;;;;;;4941420;28;20633;-75
2022/05/09 09:12:25;;;;;;;11.02;4.05;;;21.90;99.90;;;;;;4942973;28;20202;-74
2022/05/09 09:15:08;;;;;;;9.20;4.18;;;22.10;99.90;;;;;;4940885;28;20202;-75
2022/05/09 09:17:47;;;;;;;8.10;4.55;;;22.30;99.90;;;;;;4943615;28;20218;-79
2022/05/09 09:20:20;;;;;;;7.75;4.45;;;22.50;99.90;;;;;;4943748;28;20688;-75
2022/05/09 09:22:53;;;;;;;10.02;4.70;;;22.60;99.90;;;;;;4943720;28;20206;-72
2022/05/09 09:25:53;;;;;;;7.25;4.07;;;22.40;99.90;;;;;;4946357;28;20214;-74
2022/05/09 09:28:46;;;;;;;8.55;4.13;;;22.10;99.90;;;;;;4944152;28;20214;-74
2022/05/09 09:31:28;;;;;;;7.97;4.13;;;22.10;99.90;;;;;;4942122;28;20206;-75
2022/05/09 09:33:59;;;;;;;8.65;4.35;;;22.30;99.90;;;;;;4940167;28;20594;-72
2022/05/09 09:36:37;;;;;;;8.73;4.47;;;22.20;99.90;;;;;;4943733;28;20213;-74
2022/05/09 09:39:22;;;;;;;6.97;3.90;;;22.40;99.90;;;;;;4943765;28;20637;-72
2022/05/09 09:41:50;;;;;;;6.93;4.40;;;22.50;99.90;;;;;;4939449;28;20206;-74
2022/05/09 09:44:20;;;;;;;7.45;4.32;;;22.70;99.90;;;;;;4941856;28;20257;-72
2022/05/09 09:47:09;;;;;;;7.70;3.72;;;22.80;99.90;;;;;;4941473;28;20241;-75
2022/05/09 09:49:41;;;;;;;10.25;4.25;;;23.00;99.90;;;;;;4943233;28;20210;-78
2022/05/09 09:52:32;;;;;;;9.38;3.97;;;23.20;99.90;;;;;;4939328;28;20213;-74
2022/05/09 09:55:06;;;;;;;11.75;4.65;;;23.10;99.90;;;;;;4936286;28;20210;-79
2022/05/09 09:57:37;;;;;;;7.88;4.32;;;23.30;99.90;;;;;;4938333;28;20320;-74
2022/05/09 10:00:34;;;;;;;11.35;4.82;;;23.40;99.90;;;;;;4944862;28;20210;-74
2022/05/09 10:03:38;;;;;;;7.47;4.32;;;23.50;99.90;;;;;;4941363;28;20624;-74
2022/05/09 10:06:17;;;;;;;8.55;4.28;;;23.50;99.90;;;;;;4915918;28;20233;-78
2022/05/09 10:08:45;;;;;;;8.77;3.90;;;23.70;99.90;;;;;;4946152;28;20229;-71
2022/05/09 10:11:25;;;;;;;7.95;3.78;;;23.90;99.90;;;;;;4944374;28;20202;-77
2022/05/09 10:13:55;;;;;;;7.90;4.15;;;24.10;99.90;;;;;;4945382;28;20205;-78
2022/05/09 10:16:27;;;;;;;5.25;3.92;;;24.20;99.90;;;;;;4944073;28;20198;-73
2022/05/09 10:18:55;;;;;;;7.97;4.15;;;24.40;99.90;;;;;;4943562;28;20230;-73
2022/05/09 10:24:51;;;;;;;6.47;4.38;;;24.60;99.90;;;;;;4944725;28;20195;-73
2022/05/09 10:27:28;;;;;;;8.63;4.15;;;24.60;99.90;;;;;;4943999;28;20321;-77
2022/05/09 10:30:09;;;;;;;5.38;3.75;;;24.70;99.90;;;;;;4943260;28;20194;-75
2022/05/09 10:32:48;;;;;;;7.35;3.97;;;24.60;99.90;;;;;;4944478;28;20311;-78
2022/05/09 10:35:36;;;;;;;6.03;4.20;;;24.80;99.90;;;;;;4943882;28;20201;-75
2022/05/09 10:38:15;;;;;;;9.18;3.92;;;24.80;99.90;;;;;;4941025;28;20226;-72
2022/05/09 10:40:47;;;;;;;8.43;4.20;;;25.00;99.90;;;;;;4941725;28;20217;-75
2022/05/09 10:43:25;;;;;;;9.93;4.25;;;25.10;99.90;;;;;;4944164;29;20209;-78
2022/05/09 10:45:54;;;;;;;5.47;4.20;;;25.20;99.90;;;;;;4945118;28;20210;-75
2022/05/09 10:48:38;;;;;;;7.75;4.32;;;25.20;99.90;;;;;;4947098;28;20294;-75
2022/05/09 10:51:25;;;;;;;7.97;4.53;;;25.40;99.90;;;;;;4940139;28;20209;-74
2022/05/09 10:54:22;;;;;;;7.60;4.00;;;25.50;99.90;;;;;;4936187;28;20531;-78
2022/05/09 10:57:02;;;;;;;8.82;3.90;;;25.50;99.90;;;;;;4935912;28;21573;-76
2022/05/09 10:59:32;;;;;;;11.15;4.00;;;25.10;99.90;;;;;;4941890;28;20206;-75
2022/05/09 11:02:05;;;;;;;7.85;3.70;;;25.20;99.90;;;;;;4938584;28;20202;-78
2022/05/09 11:04:35;;;;;;;6.25;3.97;;;25.10;99.90;;;;;;4939822;28;20210;-77
2022/05/09 11:07:08;;;;;;;4.47;3.83;;;24.90;99.90;;;;;;4938497;28;20234;-75
2022/05/09 11:10:02;;;;;;;7.40;4.10;;;24.90;99.90;;;;;;4939467;28;20210;-77
2022/05/09 11:13:00;;;;;;;7.32;4.45;;;25.00;99.90;;;;;;4941335;28;20716;-78
2022/05/09 11:15:36;;;;;;;5.90;4.22;;;24.60;99.90;;;;;;4941735;28;20199;-76
2022/05/09 11:18:12;;;;;;;5.93;3.90;;;24.30;99.90;;;;;;4933876;28;20222;-76
2022/05/09 11:21:02;;;;;;;9.70;3.90;;;24.40;99.90;;;;;;4936971;28;20264;-76
2022/05/09 11:23:43;;;;;;;10.40;4.55;;;24.60;99.90;;;;;;4939816;28;20217;-78
2022/05/09 11:26:47;;;;;;;7.40;4.32;;;24.60;99.90;;;;;;4941541;28;20230;-75
2022/05/09 11:29:52;;;;;;;7.47;4.28;;;24.70;99.90;;;;;;4940335;28;20205;-75
2022/05/09 11:32:41;;;;;;;5.18;4.43;;;24.80;99.90;;;;;;4943257;28;20198;-74
2022/05/09 11:35:28;;;;;;;7.13;4.05;;;24.60;99.90;;;;;;4948126;28;20711;-77
2022/05/09 11:38:10;;;;;;;5.97;4.38;;;24.70;99.90;;;;;;4945790;28;20225;-76
2022/05/09 11:40:48;;;;;;;9.90;4.03;;;25.00;99.90;;;;;;4948029;28;20205;-73
2022/05/09 11:43:37;;;;;;;7.53;4.35;;;25.20;99.90;;;;;;4942355;28;20212;-75
2022/05/09 11:46:38;;;;;;;5.28;4.07;;;25.40;99.90;;;;;;4941091;28;20214;-78
2022/05/09 11:49:22;;;;;;;6.65;4.25;;;25.40;99.90;;;;;;4937673;28;20578;-76
2022/05/09 11:52:21;;;;;;;5.50;3.85;;;25.20;99.90;;;;;;4942727;28;20202;-72
2022/05/09 11:54:49;;;;;;;6.20;4.20;;;25.20;99.90;;;;;;4930538;28;20265;-74
2022/05/09 11:57:32;;;;;;;7.53;3.95;;;25.40;99.90;;;;;;4939929;28;20229;-71
2022/05/09 12:00:05;;;;;;;10.88;4.72;;;25.50;99.90;;;;;;4941115;28;20217;-79
2022/05/09 12:02:46;;;;;;;5.55;4.22;;;25.70;99.90;;;;;;4941189;28;20298;-75
2022/05/09 12:05:35;;;;;;;8.45;4.25;;;25.80;99.90;;;;;;4941443;28;20312;-74
2022/05/09 12:08:08;;;;;;;6.55;4.78;;;25.90;99.90;;;;;;4939368;28;20226;-80
2022/05/09 12:10:40;;;;;;;5.07;4.22;;;26.00;99.90;;;;;;4944131;28;20253;-76
2022/05/09 12:13:25;;;;;;;8.32;4.60;;;25.80;99.90;;;;;;4949586;28;20213;-74
2022/05/09 12:15:56;;;;;;;6.28;4.25;;;25.60;99.90;;;;;;4944155;28;20635;-74
2022/05/09 12:18:55;;;;;;;6.82;4.18;;;25.70;99.90;;;;;;4947473;28;21007;-75
2022/05/09 12:21:41;;;;;;;6.05;4.35;;;25.70;99.90;;;;;;4946416;28;20379;-75
2022/05/09 12:24:11;;;;;;;6.10;3.88;;;25.40;99.90;;;;;;4945568;28;20765;-77
2022/05/09 12:26:40;;;;;;;5.30;3.83;;;25.50;99.90;;;;;;4944548;28;20690;-75
2022/05/09 12:29:27;;;;;;;7.40;4.13;;;25.70;99.90;;;;;;4943826;28;20217;-76
2022/05/09 12:32:00;;;;;;;8.07;4.50;;;25.70;99.90;;;;;;4947654;28;20201;-74
2022/05/09 12:34:40;;;;;;;7.13;4.00;;;25.80;99.90;;;;;;4942242;28;20206;-72
2022/05/09 12:37:09;;;;;;;6.53;4.05;;;25.50;99.90;;;;;;4945192;28;20229;-78
2022/05/09 12:39:43;;;;;;;5.78;4.07;;;25.30;99.90;;;;;;4947697;28;20205;-78
2022/05/09 12:42:44;;;;;;;7.75;3.50;;;25.50;99.90;;;;;;4946013;28;20216;-74
2022/05/09 12:45:12;;;;;;;6.25;4.38;;;25.70;99.90;;;;;;4943862;28;20559;-78
2022/05/09 12:47:40;;;;;;;6.20;3.90;;;25.90;99.90;;;;;;4942993;28;20262;-76
2022/05/09 12:50:13;;;;;;;3.85;3.35;;;26.10;99.90;;;;;;4943380;28;20214;-77
2022/05/09 12:52:49;;;;;;;4.40;3.72;;;26.30;99.90;;;;;;4939869;28;20203;-76
2022/05/09 12:58:30;;;;;;;5.45;3.90;;;26.90;99.90;;;;;;4941098;28;21131;-74
2022/05/09 13:01:09;;;;;;;5.43;4.03;;;26.90;99.90;;;;;;4939587;28;20444;-75
2022/05/09 13:04:06;;;;;;;5.05;3.70;;;27.00;99.90;;;;;;4942890;28;20218;-75
2022/05/09 13:06:44;;;;;;;4.82;3.70;;;26.90;99.90;;;;;;4938946;28;20232;-78
2022/05/09 13:09:14;;;;;;;5.07;4.10;;;27.30;99.90;;;;;;4941980;28;20205;-81
2022/05/09 13:11:45;;;;;;;5.25;3.70;;;27.50;99.90;;;;;;4941156;28;20583;-76
2022/05/09 13:14:17;;;;;;;4.85;3.80;;;27.50;99.90;;;;;;4947961;28;20481;-77
2022/05/09 13:17:03;;;;;;;6.28;3.95;;;27.70;99.90;;;;;;4940655;28;20235;-75
2022/05/09 13:19:31;;;;;;;7.35;4.13;;;27.20;99.90;;;;;;4944872;28;20674;-77
2022/05/09 13:21:58;;;;;;;7.65;3.78;;;27.00;99.90;;;;;;4946997;28;20199;-74
2022/05/09 13:24:28;;;;;;;9.07;3.67;;;27.00;99.90;;;;;;4937403;28;21494;-81
2022/05/09 13:26:57;;;;;;;5.30;3.70;;;27.40;99.90;;;;;;4939475;28;20245;-76